Time;durP1;ratioP1;P1;durP2;ratioP2;P2;SDS_P1;SDS_P2;PMS_P1;PMS_P2;Temp;Humidity;BMP_temperature;BMP_pressure;BME280_temperature;BME280_humidity;BME280_pressure;Samples;Min_cycle;Max_cycle;Signal;HPM_P1;HPM_P2
2024/01/02 15:24:36;;;;;;;3.20;2.00;;;;;;;5.39;81.40;92004.78;5063429;28;20406;-78
2024/01/02 15:27:07;;;;;;;4.72;2.20;;;;;;;5.33;84.73;92011.03;5042363;28;20288;-78
2024/01/02 15:29:48;;;;;;;3.08;1.70;;;;;;;5.28;87.67;92011.06;5041582;28;20037;-79
2024/01/02 15:32:15;;;;;;;2.90;1.80;;;;;;;5.16;89.21;92004.34;5043473;28;20056;-79
2024/01/02 15:35:11;;;;;;;3.45;1.98;;;;;;;5.14;89.87;92023.81;5013229;28;20395;-79
2024/01/02 15:37:55;;;;;;;3.65;1.65;;;;;;;5.05;93.08;92025.41;5043754;28;20082;-79
2024/01/02 15:40:26;;;;;;;3.60;1.88;;;;;;;4.98;92.47;92016.06;5043346;28;20409;-79
2024/01/02 15:43:01;;;;;;;5.25;2.30;;;;;;;4.91;93.56;92007.78;5043822;28;20092;-79
2024/01/02 15:45:32;;;;;;;3.80;1.90;;;;;;;4.88;92.81;92012.69;5043765;28;20146;-79
2024/01/02 15:48:18;;;;;;;4.30;2.20;;;;;;;4.80;96.25;92014.78;5043371;28;20029;-79
2024/01/02 15:50:47;;;;;;;3.95;2.08;;;;;;;4.76;97.54;92024.13;5043364;28;20100;-79
2024/01/02 15:53:15;;;;;;;4.70;2.53;;;;;;;4.72;97.94;92023.09;5040840;28;20034;-79
2024/01/02 15:55:50;;;;;;;3.58;2.20;;;;;;;4.68;97.97;92023.88;5046265;28;20029;-78
2024/01/02 15:58:27;;;;;;;4.30;2.50;;;;;;;4.76;97.55;92026.72;5045843;28;20092;-78
2024/01/02 16:00:56;;;;;;;3.75;2.00;;;;;;;4.74;97.56;92023.59;5044766;28;20037;-78
2024/01/02 16:03:42;;;;;;;3.47;1.80;;;;;;;4.72;96.99;92023.09;5037721;28;20045;-79
2024/01/02 16:06:22;;;;;;;3.42;1.80;;;;;;;4.70;96.41;92025.16;5044708;28;20036;-78
2024/01/02 16:09:19;;;;;;;3.30;1.67;;;;;;;4.71;97.30;92029.31;5044213;28;20026;-79
2024/01/02 16:11:51;;;;;;;3.25;1.85;;;;;;;4.67;99.15;92030.09;5044330;28;20075;-79
2024/01/02 16:14:49;;;;;;;6.72;2.58;;;;;;;4.71;100.00;92034.50;5041363;28;20973;-79
2024/01/02 16:17:36;;;;;;;7.15;3.90;;;;;;;4.71;100.00;92042.28;5039401;28;20033;-78
2024/01/02 16:20:25;;;;;;;7.25;3.42;;;;;;;4.73;100.00;92050.59;5042294;28;20068;-79
2024/01/02 16:23:28;;;;;;;4.05;2.20;;;;;;;4.70;100.00;92058.09;5038894;28;20049;-79
2024/01/02 16:26:16;;;;;;;2.85;1.77;;;;;;;4.69;100.00;92056.56;5037104;28;20067;-80
2024/01/02 16:29:12;;;;;;;3.75;1.90;;;;;;;4.69;100.00;92054.72;5033289;28;20048;-80
2024/01/02 16:31:47;;;;;;;3.03;1.90;;;;;;;4.69;100.00;92057.31;5037374;28;20052;-78
2024/01/02 16:34:12;;;;;;;4.28;1.92;;;;;;;4.72;100.00;92063.81;5035040;28;20045;-79
2024/01/02 16:36:54;;;;;;;8.02;2.30;;;;;;;4.71;100.00;92051.91;5026241;28;20397;-79
2024/01/02 16:39:28;;;;;;;3.78;1.90;;;;;;;4.67;100.00;92040.47;5023359;28;22531;-79
2024/01/02 16:41:54;;;;;;;4.57;2.10;;;;;;;4.62;100.00;92045.69;5026080;28;20033;-79
2024/01/02 16:44:23;;;;;;;4.35;2.10;;;;;;;4.58;100.00;92040.22;5021908;28;21747;-80
2024/01/02 16:46:52;;;;;;;4.57;2.00;;;;;;;4.57;100.00;92036.06;5022706;28;20124;-78
2024/01/02 16:49:19;;;;;;;4.95;2.35;;;;;;;4.57;100.00;92021.31;5021500;28;20040;-79
2024/01/02 16:51:58;;;;;;;3.47;2.10;;;;;;;4.58;100.00;92030.63;5021328;28;20025;-79
2024/01/02 16:54:26;;;;;;;7.72;1.70;;;;;;;4.56;100.00;92031.91;5020924;28;20041;-80
2024/01/02 16:56:54;;;;;;;3.75;2.00;;;;;;;4.51;100.00;92029.34;5023676;28;20034;-80
2024/01/02 16:59:21;;;;;;;3.50;1.70;;;;;;;4.33;78.91;92031.41;5022448;28;20132;-80
2024/01/02 17:01:47;;;;;;;3.70;1.92;;;;;;;4.28;78.16;92031.41;5019995;28;20052;-79
2024/01/02 17:04:18;;;;;;;6.45;3.67;;;;;;;4.22;79.11;92018.69;5007680;28;20052;-79
2024/01/02 17:06:47;;;;;;;9.32;4.00;;;;;;;4.16;79.29;92010.13;5022552;28;20034;-80
2024/01/02 17:09:14;;;;;;;3.70;2.15;;;;;;;4.11;83.01;92008.31;5023508;28;20864;-80
2024/01/02 17:11:40;;;;;;;3.30;1.80;;;;;;;4.10;79.36;92003.41;5022661;28;20037;-80
2024/01/02 17:14:06;;;;;;;3.67;1.77;;;;;;;4.10;77.54;91996.41;5021750;28;20224;-80
2024/01/02 17:16:32;;;;;;;5.68;3.83;;;;;;;4.06;79.36;91992.78;5023225;28;20998;-79
2024/01/02 17:18:58;;;;;;;6.07;2.72;;;;;;;4.03;81.39;92005.44;5020671;28;20148;-80
2024/01/02 17:21:27;;;;;;;4.55;2.17;;;;;;;4.02;82.88;92019.44;5019102;28;20132;-80
2024/01/02 17:23:53;;;;;;;4.82;2.65;;;;;;;4.02;86.20;92027.22;5021003;28;20044;-79
2024/01/02 17:26:26;;;;;;;7.80;3.40;;;;;;;3.99;87.89;92023.34;5021794;28;20041;-79
2024/01/02 17:28:54;;;;;;;5.47;3.20;;;;;;;4.04;88.56;92030.34;5019006;28;20163;-79
2024/01/02 17:31:21;;;;;;;6.35;3.20;;;;;;;4.04;88.96;92035.50;5019632;28;20045;-81
2024/01/02 17:33:51;;;;;;;7.75;3.55;;;;;;;3.97;92.41;92023.59;5021870;28;20042;-78
2024/01/02 17:36:27;;;;;;;7.25;3.42;;;;;;;4.02;91.49;92047.94;5019905;28;20040;-81
2024/01/02 17:38:58;;;;;;;10.90;6.30;;;;;;;4.04;92.58;92048.47;5018686;28;20042;-80
2024/01/02 17:41:28;;;;;;;7.85;4.40;;;;;;;4.02;93.20;92046.13;5025235;28;20104;-79
2024/01/02 17:43:54;;;;;;;8.13;4.63;;;;;;;4.04;94.80;92032.94;5026196;28;20087;-79
2024/01/02 17:46:19;;;;;;;8.43;4.55;;;;;;;4.04;96.06;92015.56;5024556;28;20547;-79
2024/01/02 17:48:47;;;;;;;13.85;9.45;;;;;;;4.05;99.41;92031.88;5026253;28;20041;-80
2024/01/02 17:51:16;;;;;;;15.02;8.15;;;;;;;4.04;100.00;92023.34;5022133;28;20091;-79
2024/01/02 17:53:49;;;;;;;14.30;7.70;;;;;;;4.05;100.00;92016.34;5024961;28;20030;-78
2024/01/02 17:56:17;;;;;;;11.35;7.50;;;;;;;4.06;100.00;92025.69;5024458;28;20033;-78
2024/01/02 17:59:07;;;;;;;27.33;17.08;;;;;;;4.08;100.00;92013.25;5027027;28;20370;-79
2024/01/02 18:01:35;;;;;;;22.60;11.95;;;;;;;4.08;100.00;91992.53;5025706;28;20038;-80
2024/01/02 18:04:07;;;;;;;15.85;8.20;;;;;;;4.08;100.00;91995.13;5033309;28;20120;-78
2024/01/02 18:06:36;;;;;;;12.00;6.45;;;;;;;4.09;100.00;91994.06;5034058;28;20056;-80
2024/01/02 18:09:17;;;;;;;9.55;5.88;;;;;;;4.08;100.00;91969.22;5027659;28;20045;-80
2024/01/02 18:11:56;;;;;;;12.00;7.10;;;;;;;4.07;100.00;91989.13;5022929;28;20139;-79
2024/01/02 18:15:18;;;;;;;18.70;10.93;;;;;;;4.06;100.00;91981.66;5033037;28;20037;-80
2024/01/02 18:17:57;;;;;;;15.48;9.13;;;;;;;4.06;100.00;91963.50;5028184;28;20632;-79
2024/01/02 18:20:36;;;;;;;13.05;7.85;;;;;;;4.07;100.00;91960.66;5032540;28;20037;-79
2024/01/02 18:23:05;;;;;;;10.43;6.25;;;;;;;4.06;100.00;91943.56;5034424;28;20063;-82
2024/01/02 18:25:54;;;;;;;11.38;6.28;;;;;;;4.08;100.00;91951.84;5036452;28;20072;-79
2024/01/02 18:28:31;;;;;;;7.65;4.20;;;;;;;4.09;100.00;91958.56;5033448;28;20112;-80
2024/01/02 18:31:33;;;;;;;7.03;3.90;;;;;;;4.08;100.00;91962.22;5028648;28;20033;-79
2024/01/02 18:34:22;;;;;;;6.70;3.95;;;;;;;4.05;100.00;91986.03;5028729;28;20400;-81
2024/01/02 18:37:26;;;;;;;9.25;3.72;;;;;;;4.05;100.00;91974.91;5023335;28;20090;-80
2024/01/02 18:40:07;;;;;;;8.35;3.28;;;;;;;4.05;100.00;91959.34;5034110;28;20044;-79
2024/01/02 18:42:51;;;;;;;4.57;2.67;;;;;;;4.04;100.00;91965.59;5033740;28;20109;-79
2024/01/02 18:45:35;;;;;;;3.92;2.20;;;;;;;4.02;100.00;91967.66;5027874;28;20036;-80
2024/01/02 18:48:26;;;;;;;4.72;2.80;;;;;;;4.04;100.00;91963.00;5032575;28;20044;-79
2024/01/02 18:50:55;;;;;;;6.32;3.13;;;;;;;4.05;100.00;91962.72;5033595;28;20041;-79
2024/01/02 18:53:25;;;;;;;8.88;4.35;;;;;;;4.06;100.00;91971.28;5038112;28;20034;-80
2024/01/02 18:55:51;;;;;;;8.63;4.45;;;;;;;4.08;100.00;91982.16;5029425;28;20042;-79
2024/01/02 18:58:17;;;;;;;9.00;3.97;;;;;;;4.08;100.00;91977.75;5030634;28;20673;-80
2024/01/02 19:01:03;;;;;;;8.60;3.40;;;;;;;4.09;100.00;91973.34;5018749;28;20049;-78
2024/01/02 19:03:29;;;;;;;6.50;3.25;;;;;;;4.08;100.00;91966.63;5034126;28;20065;-79
2024/01/02 19:05:54;;;;;;;5.32;3.00;;;;;;;4.09;100.00;91974.13;5029563;28;20073;-80
2024/01/02 19:08:20;;;;;;;5.32;2.75;;;;;;;4.10;100.00;91980.09;5025923;28;20125;-78
2024/01/02 19:10:46;;;;;;;8.18;2.33;;;;;;;4.10;100.00;91982.69;5028087;28;20485;-80
2024/01/02 19:13:13;;;;;;;4.70;2.17;;;;;;;4.10;100.00;91977.50;5024448;28;20108;-80
2024/01/02 19:15:43;;;;;;;4.00;1.90;;;;;;;4.12;100.00;91975.41;5027982;28;20043;-79
2024/01/02 19:18:11;;;;;;;3.78;1.80;;;;;;;4.14;100.00;91960.38;5031998;28;20072;-80
2024/01/02 19:20:41;;;;;;;3.30;1.92;;;;;;;4.15;100.00;91954.19;5019329;28;20521;-80
2024/01/02 19:23:07;;;;;;;11.90;6.35;;;;;;;4.18;100.00;91958.84;5024848;28;20056;-79
2024/01/02 19:25:33;;;;;;;7.78;4.47;;;;;;;4.34;100.00;91969.97;5021502;28;20021;-80
2024/01/02 19:28:06;;;;;;;6.82;3.70;;;;;;;4.20;100.00;91958.59;5031349;28;20099;-79
2024/01/02 19:30:32;;;;;;;5.95;3.50;;;;;;;4.13;100.00;91954.44;5022921;28;20358;-79
2024/01/02 19:32:59;;;;;;;6.65;3.88;;;;;;;4.07;100.00;91959.88;5026621;28;20036;-80
2024/01/02 19:35:25;;;;;;;18.75;7.45;;;;;;;4.01;100.00;91968.66;5019602;28;20033;-80
2024/01/02 19:37:51;;;;;;;18.73;7.30;;;;;;;3.97;100.00;91966.59;5018101;28;20121;-79
2024/01/02 19:40:20;;;;;;;18.60;7.70;;;;;;;3.97;100.00;91971.78;5033328;28;20053;-80
2024/01/02 19:42:51;;;;;;;16.10;7.15;;;;;;;3.96;100.00;91969.44;5037077;28;20040;-78
2024/01/02 19:45:18;;;;;;;13.57;6.40;;;;;;;3.93;100.00;91960.38;5034246;28;20041;-78
2024/01/02 19:47:44;;;;;;;12.02;5.75;;;;;;;3.96;100.00;91957.28;5043250;28;20025;-80
2024/01/02 19:50:11;;;;;;;24.98;10.70;;;;;;;3.99;100.00;91963.00;5025133;28;20034;-79
2024/01/02 19:52:43;;;;;;;22.98;12.45;;;;;;;3.98;100.00;91962.19;5039501;28;20053;-80
2024/01/02 19:55:08;;;;;;;19.80;9.65;;;;;;;3.99;100.00;91960.41;5024968;28;20564;-79
2024/01/02 19:57:34;;;;;;;18.90;10.52;;;;;;;3.96;100.00;91954.72;5015658;28;20034;-78
2024/01/02 20:00:01;;;;;;;18.63;9.82;;;;;;;3.93;100.00;91933.72;5026542;28;20030;-79
2024/01/02 20:02:32;;;;;;;12.48;7.18;;;;;;;3.95;100.00;91947.97;5028200;28;20028;-78
2024/01/02 20:04:58;;;;;;;10.18;5.55;;;;;;;3.96;100.00;91936.56;5035353;28;20084;-79
2024/01/02 20:07:33;;;;;;;7.82;4.63;;;;;;;3.97;100.00;91924.41;5022422;28;20065;-79
2024/01/02 20:10:12;;;;;;;8.43;4.63;;;;;;;3.96;100.00;91931.41;5032235;28;20069;-79
2024/01/02 20:12:50;;;;;;;9.73;5.70;;;;;;;3.97;100.00;91909.63;5028936;28;20036;-79
2024/01/02 20:15:21;;;;;;;7.03;4.40;;;;;;;3.97;100.00;91909.63;5046391;28;20063;-79
2024/01/02 20:17:57;;;;;;;7.95;4.20;;;;;;;3.96;100.00;91921.03;5036363;28;20037;-83
2024/01/02 20:20:42;;;;;;;7.75;4.45;;;;;;;4.02;100.00;91915.84;5035936;28;20040;-81
2024/01/02 20:23:34;;;;;;;11.38;5.65;;;;;;;4.01;100.00;91914.28;5032663;28;20082;-82
2024/01/02 20:26:05;;;;;;;9.13;5.18;;;;;;;4.02;100.00;91929.56;5023071;28;20393;-82
2024/01/02 20:28:31;;;;;;;7.38;4.32;;;;;;;4.04;100.00;91921.56;5030659;28;20029;-82
2024/01/02 20:30:57;;;;;;;14.05;5.68;;;;;;;4.04;100.00;91924.91;5030923;28;20037;-81
2024/01/02 20:33:27;;;;;;;14.40;6.78;;;;;;;4.04;100.00;91924.16;5034595;28;20789;-81
2024/01/02 20:35:53;;;;;;;7.28;3.45;;;;;;;4.02;100.00;91944.34;5028689;28;20084;-82
2024/01/02 20:38:28;;;;;;;6.18;3.63;;;;;;;4.05;100.00;91936.03;5033055;28;20093;-83
2024/01/02 20:40:55;;;;;;;6.32;3.55;;;;;;;4.04;100.00;91934.50;5026790;28;20543;-82
2024/01/02 20:43:27;;;;;;;8.32;3.65;;;;;;;4.05;100.00;91930.88;5029187;28;20034;-82
2024/01/02 20:45:56;;;;;;;8.45;4.20;;;;;;;4.19;100.00;91921.56;5022658;28;20033;-82
2024/01/02 20:48:23;;;;;;;5.68;3.33;;;;;;;4.20;100.00;91911.97;5012417;28;20030;-82
2024/01/02 20:50:51;;;;;;;4.50;2.45;;;;;;;4.18;100.00;91894.06;5031264;28;20402;-81
2024/01/02 20:53:43;;;;;;;5.72;3.20;;;;;;;4.16;100.00;91903.91;5027437;28;20702;-81
2024/01/02 20:56:34;;;;;;;6.03;3.30;;;;;;;4.13;100.00;91922.59;5024070;28;20061;-82
2024/01/02 20:58:59;;;;;;;4.55;2.33;;;;;;;4.11;100.00;91922.06;5022845;28;20045;-82
2024/01/02 21:01:26;;;;;;;5.50;3.05;;;;;;;4.09;100.00;91918.94;5021749;28;20021;-82
2024/01/02 21:04:02;;;;;;;3.92;2.35;;;;;;;4.08;100.00;91909.66;5025944;28;20132;-82
2024/01/02 21:06:37;;;;;;;5.20;2.85;;;;;;;4.09;100.00;91903.41;5030417;28;20479;-82
2024/01/02 21:09:25;;;;;;;5.70;2.20;;;;;;;4.09;100.00;91916.38;5022370;28;20049;-81
2024/01/02 21:12:11;;;;;;;5.25;1.90;;;;;;;4.08;100.00;91913.00;5031160;28;20049;-82
2024/01/02 21:14:38;;;;;;;4.65;2.00;;;;;;;4.09;100.00;91914.53;5021625;28;20061;-82
2024/01/02 21:17:15;;;;;;;4.03;2.17;;;;;;;4.11;100.00;91909.13;5015126;28;20034;-82
2024/01/02 21:19:45;;;;;;;4.10;2.40;;;;;;;4.12;100.00;91905.47;5022794;28;20038;-82
2024/01/02 21:22:53;;;;;;;7.07;2.67;;;;;;;4.10;100.00;91905.75;5019738;28;20119;-82
2024/01/02 21:25:21;;;;;;;5.57;2.50;;;;;;;4.10;100.00;91923.88;5041007;28;20045;-81
2024/01/02 21:27:47;;;;;;;4.45;2.60;;;;;;;4.09;100.00;91916.38;5029655;28;20037;-82
2024/01/02 21:30:14;;;;;;;3.83;1.90;;;;;;;4.10;100.00;91907.56;5016017;28;20068;-83
2024/01/02 21:32:40;;;;;;;5.38;2.45;;;;;;;4.06;100.00;91903.94;5004987;28;20047;-83
2024/01/02 21:35:10;;;;;;;4.65;2.60;;;;;;;4.11;100.00;91883.22;4995385;28;20113;-80
2024/01/02 21:37:40;;;;;;;2.95;1.70;;;;;;;4.13;100.00;91875.97;5022382;28;20410;-81
2024/01/02 21:40:32;;;;;;;4.15;2.33;;;;;;;4.18;100.00;91875.94;5021735;28;20037;-81
2024/01/02 21:43:06;;;;;;;4.25;2.20;;;;;;;4.10;100.00;91882.44;5036431;28;20049;-82
2024/01/02 21:45:38;;;;;;;4.32;2.35;;;;;;;4.07;100.00;91888.13;5037974;28;20442;-82
2024/01/02 21:48:08;;;;;;;7.05;2.50;;;;;;;4.03;100.00;91904.44;5034625;28;20084;-82
2024/01/02 21:51:00;;;;;;;7.78;4.32;;;;;;;4.01;100.00;91903.91;5043226;28;20033;-81
2024/01/02 21:53:26;;;;;;;13.05;4.78;;;;;;;4.00;100.00;91902.38;5036007;28;20038;-82
2024/01/02 21:55:51;;;;;;;6.00;3.25;;;;;;;3.99;100.00;91903.44;5029296;28;20041;-82
2024/01/02 21:58:39;;;;;;;7.10;3.40;;;;;;;4.00;100.00;91902.38;5039714;28;20068;-81
2024/01/02 22:01:11;;;;;;;7.60;4.07;;;;;;;3.99;100.00;91909.38;5024930;28;20033;-81
2024/01/02 22:03:53;;;;;;;5.90;3.22;;;;;;;3.96;100.00;91905.50;5022078;28;20025;-81
2024/01/02 22:06:24;;;;;;;4.20;2.40;;;;;;;3.97;100.00;91888.91;5026181;28;20044;-80
2024/01/02 22:08:52;;;;;;;6.37;2.30;;;;;;;3.99;100.00;91882.72;5035938;28;20351;-80
2024/01/02 22:11:52;;;;;;;3.90;1.98;;;;;;;4.00;100.00;91873.91;5013991;28;20025;-81
2024/01/02 22:14:39;;;;;;;6.78;2.45;;;;;;;4.04;100.00;91873.13;5021248;28;20033;-81
2024/01/02 22:17:23;;;;;;;2.83;1.73;;;;;;;4.26;100.00;91870.25;5031355;28;20041;-80
2024/01/02 22:19:55;;;;;;;4.00;2.45;;;;;;;4.33;100.00;91878.50;5035692;28;20116;-81
2024/01/02 22:22:28;;;;;;;5.70;2.50;;;;;;;4.09;100.00;91861.97;5030603;28;20039;-81
